Flight Track Log - Related Links

Times and Time Zones

All times are in EDT time to prevent confusion due to time zone crossing. See the N302MP flight status page for this flight to view local times or setup timezone preferences in your user account.

Time Position Orientation Groundspeed Altitude Reporting Facility
EDT Latitude Longitude Course Direction KTS MPH feet Rate Location/Type
Thu 11:06:19 AM 21.8194 -72.2794 335° Northwest 120 138 1,900  Level Miami Center
Thu 11:07:19 AM 21.8431 -72.2986 323° Northwest 115 132 2,400 500 Climbing Miami Center
Thu 11:08:00 AM 21.9305 -72.3464 338° Northwest  Level FlightAware Approximate
Thu 11:08:19 AM 21.8686 -72.3181 325° Northwest 115 132 2,900  Level Miami Center
Thu 11:09:00 AM 21.9639 -72.3607 338° Northwest  Level FlightAware Approximate
Thu 11:09:19 AM 21.8961 -72.3325 334° Northwest 109 125 3,400  Level Miami Center
Thu 11:10:00 AM 21.9973 -72.3751 338° Northwest  Level FlightAware Approximate
Thu 11:10:19 AM 21.9258 -72.3450 339° North 109 125 3,800  Level Miami Center
Thu 11:11:00 AM 22.0304 -72.3902 335° Northwest  Level FlightAware Approximate
Thu 11:11:19 AM 21.9556 -72.3597 335° Northwest 114 131 4,200  Level Miami Center
Thu 11:12:19 AM 21.9850 -72.3744 335° Northwest 114 131 4,600 400 Climbing Miami Center
Thu 11:13:19 AM 22.0169 -72.3889 337° Northwest 114 131 5,000 350 Climbing Miami Center
Thu 11:14:19 AM 22.0444 -72.4058 330° Northwest 114 131 5,300 300 Climbing Miami Center
Thu 11:15:19 AM 22.0783 -72.4183 341° North 124 143 5,600 300 Climbing Miami Center
Thu 11:16:19 AM 22.0975 -72.4356 320° Northwest 118 136 5,900 300 Climbing Miami Center
Thu 11:17:19 AM 22.1333 -72.4478 342° North 118 136 6,200 350 Climbing Miami Center
Thu 11:18:19 AM 22.1447 -72.4811 290° West 118 136 6,600 300 Climbing Miami Center
Thu 11:19:19 AM 22.1603 -72.5142 297° West 118 136 6,800 250 Climbing Miami Center
Thu 11:20:19 AM 22.1758 -72.5450 299° West 118 136 7,100 250 Climbing Miami Center
Thu 11:21:19 AM 22.1892 -72.5758 295° West 118 136 7,300 200 Climbing Miami Center
Thu 11:22:19 AM 22.2069 -72.6089 300° West 118 136 7,500 200 Climbing Miami Center
Thu 11:23:19 AM 22.2222 -72.6397 298° West 118 136 7,700 200 Climbing Miami Center
Thu 11:24:19 AM 22.2378 -72.6731 297° West 118 136 7,900 150 Climbing Miami Center
Thu 11:25:19 AM 22.2431 -72.7131 278° West 123 142 8,000 50 Climbing Miami Center
Thu 11:26:19 AM 22.2731 -72.7414 319° Northwest 129 148 8,000  Level Miami Center
Thu 11:27:19 AM 22.2928 -72.7767 301° West 135 155 8,000  Level Miami Center
Thu 11:28:19 AM 22.3125 -72.8097 303° West 135 155 8,000  Level Miami Center
Thu 11:29:19 AM 22.3322 -72.8472 300° West 140 161 8,000  Level Miami Center
Thu 11:30:19 AM 22.3500 -72.8825 299° West 140 161 8,000  Level Miami Center
Thu 11:31:19 AM 22.3697 -72.9178 301° West 140 161 8,000  Level Miami Center
Thu 11:32:19 AM 22.3875 -72.9556 297° West 140 161 8,000  Level Miami Center
Thu 11:33:19 AM 22.4069 -72.9886 302° West 140 161 8,000  Level Miami Center
Thu 11:34:19 AM 22.4247 -73.0242 298° West 140 161 8,000  Level Miami Center
Thu 11:35:19 AM 22.4422 -73.0594 298° West 140 161 8,000  Level Miami Center
Thu 11:36:19 AM 22.4639 -73.0925 305° West 140 161 8,000  Level Miami Center
Thu 11:37:19 AM 22.4794 -73.1303 294° West 140 161 8,000  Level Miami Center
Thu 11:38:19 AM 22.5011 -73.1656 304° West 140 161 8,000  Level Miami Center
Thu 11:39:19 AM 22.5208 -73.2011 301° West 140 161 8,000  Level Miami Center
Thu 11:40:19 AM 22.5383 -73.2364 298° West 135 155 8,000  Level Miami Center
Thu 11:41:19 AM 22.5542 -73.2789 292° West 135 155 8,000  Level Miami Center
Thu 11:42:19 AM 22.5717 -73.3119 300° West 135 155 8,000  Level Miami Center
Thu 11:43:19 AM 22.5847 -73.3386 298° West 135 155 8,000  Level Miami Center
Thu 11:45:19 AM 22.5847 -73.3386 335° Northwest 135 155 8,000  Level Miami Center
Thu 11:47:19 AM 22.5847 -73.3386 335° Northwest 135 155 8,000  Level Miami Center
Thu 11:49:19 AM 22.6453 -73.5192 290° West 135 155 8,000  Level Miami Center
Thu 11:50:19 AM 22.6583 -73.5458 298° West 135 155 8,000  Level Miami Center
Thu 11:51:19 AM 22.6758 -73.5792 300° West 135 155 8,000  Level Miami Center
Thu 11:52:19 AM 22.6781 -73.5858 290° West 135 155 8,000  Level Miami Center
Thu 11:54:19 AM 22.6781 -73.5858 215° Southwest 135 155 8,000  Level Miami Center
Thu 11:56:19 AM 22.6781 -73.5858 215° Southwest 135 155 8,000  Level Miami Center
Thu 11:58:19 AM 22.6781 -73.5858 215° Southwest 135 155 8,000  Level Miami Center
Thu 12:00:19 PM 22.6781 -73.5858 215° Southwest 135 155 8,000  Level Miami Center
Thu 12:02:19 PM 22.6781 -73.5858 215° Southwest 135 155 8,000  Level Miami Center
Thu 12:04:19 PM 22.6781 -73.5858 215° Southwest 135 155 8,000  Level Miami Center
Thu 12:06:19 PM 22.6781 -73.5858 215° Southwest 135 155 8,000  Level Miami Center
Thu 12:08:19 PM 22.6781 -73.5858 215° Southwest 135 155 8,000  Level Miami Center
Thu 12:10:19 PM 22.6781 -73.5858 215° Southwest 135 155 8,000  Level Miami Center
Thu 12:12:19 PM 22.6781 -73.5858 215° Southwest 135 155 8,000  Level Miami Center
Thu 12:13:19 PM 23.1211 -74.3675 302° West 135 155 8,000  Level Miami Center
Thu 12:14:19 PM 23.1233 -74.3742 290° West 135 155 8,000  Level Miami Center
Thu 12:15:19 PM 23.1344 -74.4100 289° West 135 155 8,000  Level Miami Center
Thu 12:16:19 PM 23.1472 -74.4369 297° West 135 155 8,000  Level Miami Center
Thu 12:17:19 PM 23.1581 -74.4614 296° West 135 155 8,000  Level Miami Center
Thu 12:18:19 PM 23.1733 -74.4950 296° West 135 155 8,000  Level Miami Center
Thu 12:19:19 PM 23.1906 -74.5286 299° West 135 155 8,000  Level Miami Center
Thu 12:20:19 PM 23.2058 -74.5622 296° West 135 155 8,000  Level Miami Center
Thu 12:21:19 PM 23.2231 -74.5958 299° West 135 155 8,000  Level Miami Center
Thu 12:22:19 PM 23.2381 -74.6297 296° West 135 155 8,000  Level Miami Center
Thu 12:23:19 PM 23.2553 -74.6633 299° West 135 155 8,000  Level Miami Center
Thu 12:24:19 PM 23.2703 -74.6969 296° West 135 155 8,000  Level Miami Center
Thu 12:25:19 PM 23.2875 -74.7306 299° West 135 155 8,000  Level Miami Center
Thu 12:26:19 PM 23.3028 -74.7642 296° West 135 155 8,000  Level Miami Center
Thu 12:27:19 PM 23.3200 -74.7978 299° West 135 155 8,000  Level Miami Center
Thu 12:28:19 PM 23.3350 -74.8314 296° West 135 155 8,000  Level Miami Center
Thu 12:29:19 PM 23.3522 -74.8653 299° West 135 155 8,000  Level Miami Center
Thu 12:30:19 PM 23.3672 -74.8989 296° West 135 155 8,000  Level Miami Center
Thu 12:31:19 PM 23.3844 -74.9325 299° West 135 155 8,000  Level Miami Center
Thu 12:32:19 PM 23.3994 -74.9664 296° West 135 155 8,000  Level Miami Center
Thu 12:33:19 PM 23.4167 -75.0000 299° West 135 155 8,000  Level Miami Center
Thu 12:34:19 PM 23.4317 -75.0339 296° West 135 155 8,000  Level Miami Center
Thu 12:35:19 PM 23.4486 -75.0675 299° West 135 155 8,000  Level Miami Center
Thu 12:36:19 PM 23.4636 -75.1014 296° West 135 155 8,000  Level Miami Center
Thu 12:37:19 PM 23.4808 -75.1350 299° West 135 155 8,000  Level Miami Center
Thu 12:38:19 PM 23.4958 -75.1686 296° West 135 155 8,000  Level Miami Center
Thu 12:39:19 PM 23.5869 -75.2808 312° West 135 155 8,000  Level Miami Center
Thu 12:40:19 PM 23.6083 -75.3147 305° West 135 155 8,000  Level Miami Center
Thu 12:41:31 PM 23.6294 -75.3483 304° West 135 155 8,000  Level Miami Center
Thu 12:42:31 PM 23.6550 -75.3889 305° West 135 155 8,000  Level Miami Center
Thu 12:43:31 PM 23.6761 -75.4228 304° West 135 155 8,000  Level Miami Center
Thu 12:44:31 PM 23.6975 -75.4564 305° West 135 155 8,000  Level Miami Center
Thu 12:45:31 PM 23.7186 -75.4903 304° West 135 155 8,000  Level Miami Center
Thu 12:46:31 PM 23.7397 -75.5242 304° West 135 155 8,000  Level Miami Center
Thu 12:47:31 PM 23.7611 -75.5581 305° West 135 155 8,000  Level Miami Center
Thu 12:48:31 PM 23.7822 -75.5917 304° West 135 155 8,000  Level Miami Center
Thu 12:49:31 PM 23.8033 -75.6256 304° West 135 155 8,000  Level Miami Center
Thu 12:50:31 PM 23.8244 -75.6594 304° West 135 155 8,000  Level Miami Center
Thu 12:51:31 PM 23.8458 -75.6933 305° West 135 155 8,000  Level Miami Center
Thu 12:52:31 PM 23.8669 -75.7272 304° West 135 155 8,000  Level Miami Center
Thu 12:53:31 PM 23.8881 -75.7611 304° West 135 155 8,000  Level Miami Center
Thu 12:54:31 PM 23.9092 -75.7950 304° West 135 155 8,000  Level Miami Center
Thu 12:55:31 PM 23.9303 -75.8292 304° West 135 155 8,000  Level Miami Center
Thu 12:56:31 PM 23.9514 -75.8628 305° West 135 155 8,000  Level Miami Center
Thu 12:57:31 PM 23.9725 -75.8969 304° West 135 155 8,000  Level Miami Center
Thu 12:58:31 PM 23.9936 -75.9308 304° West 135 155 8,000  Level Miami Center
Thu 12:59:31 PM 24.0147 -75.9647 304° West 135 155 8,000  Level Miami Center
Thu 01:00:31 PM 24.0358 -75.9989 304° West 135 155 8,000  Level Miami Center
Thu 01:01:31 PM 24.0569 -76.0328 304° West 135 155 8,000 50 Level Miami Center
Thu 01:02:31 PM 24.0925 -76.0189 20° North 125 144 8,100 50 Climbing Miami Center
Thu 01:03:31 PM 24.1094 -76.0506 300° West 120 138 8,100  Level Miami Center
Thu 01:04:31 PM 24.1325 -76.0778 313° West 120 138 8,100  Level Miami Center
Thu 01:05:31 PM 24.1472 -76.1142 294° West 120 138 8,100  Level Miami Center
Thu 01:06:31 PM 24.1725 -76.1414 316° Northwest 120 138 8,100  Level Miami Center
Thu 01:07:31 PM 24.1914 -76.1708 305° West 125 144 8,100  Level Miami Center
Thu 01:08:31 PM 24.2103 -76.2025 303° West 125 144 8,100  Level Miami Center
Thu 01:09:31 PM 24.2314 -76.2344 306° West 125 144 8,100  Level Miami Center
Thu 01:10:31 PM 24.2503 -76.2639 305° West 125 144 8,100  Level Miami Center
Thu 01:11:31 PM 24.2714 -76.2936 308° West 125 144 8,100  Level Miami Center
Thu 01:12:31 PM 24.2925 -76.3253 306° West 125 144 8,100 200 Level Miami Center
Thu 01:13:31 PM 24.3092 -76.3550 302° West 120 138 8,500 300 Climbing Miami Center
Thu 01:14:31 PM 24.3303 -76.3822 310° West 120 138 8,700 200 Climbing Miami Center
Thu 01:15:31 PM 24.3469 -76.4117 302° West 120 138 8,900 200 Climbing Miami Center
Thu 01:16:31 PM 24.3658 -76.4344 312° West 115 132 9,100 250 Climbing Miami Center
Thu 01:17:31 PM 24.3806 -76.4619 300° West 115 132 9,400 300 Climbing Miami Center
Thu 01:18:31 PM 24.4036 -76.4869 315° West 115 132 9,700 250 Climbing Miami Center
Thu 01:19:31 PM 24.4225 -76.5119 310° West 110 127 9,900 150 Climbing Miami Center
Thu 01:20:31 PM 24.4456 -76.5369 315° West 110 127 10,000 50 Climbing Miami Center
Thu 01:21:31 PM 24.4686 -76.5667 310° West 110 127 10,000  Level Miami Center
Thu 01:22:31 PM 24.4958 -76.5939 318° Northwest 116 133 10,000  Level Miami Center
Thu 01:23:31 PM 24.5189 -76.6236 310° West 126 145 10,000  Level Miami Center
Thu 01:24:31 PM 24.5481 -76.6508 320° Northwest 126 145 10,000  Level Miami Center
Thu 01:25:31 PM 24.5692 -76.6806 308° West 132 152 10,000  Level Miami Center
Thu 01:26:31 PM 24.5942 -76.7125 311° West 132 152 10,000  Level Miami Center
Thu 01:27:31 PM 24.6194 -76.7378 318° Northwest 132 152 10,000  Level Miami Center
Thu 01:28:31 PM 24.6381 -76.7697 303° West 132 152 10,000  Level Miami Center
Thu 01:29:31 PM 24.6592 -76.7994 308° West 127 146 10,000  Level Miami Center
Thu 01:30:31 PM 24.6758 -76.8314 300° West 122 140 10,000  Level Miami Center
Thu 01:31:31 PM 24.6947 -76.8658 301° West 122 140 10,000  Level Miami Center
Thu 01:32:31 PM 24.7114 -76.8956 302° West 122 140 10,000  Level Miami Center
Thu 01:33:31 PM 24.7281 -76.9275 300° West 122 140 10,000  Level Miami Center
Thu 01:34:31 PM 24.7469 -76.9594 303° West 122 140 10,000  Level Miami Center
Thu 01:36:00 PM 24.7670 -77.0119 303° West  Level FlightAware Approximate
Thu 01:43:00 PM 24.8979 -77.2324 303° West  Level FlightAware Approximate
Thu 01:44:00 PM 24.9165 -77.2639 303° West  Level FlightAware Approximate
Thu 01:45:00 PM 24.9352 -77.2954 303° West  Level FlightAware Approximate
Thu 01:46:00 PM 24.9539 -77.3270 303° West  Level FlightAware Approximate
Thu 01:47:00 PM 24.9725 -77.3585 303° West  Level FlightAware Approximate
Thu 01:48:00 PM 24.9912 -77.3901 303° West  Level FlightAware Approximate
Thu 01:49:00 PM 25.0098 -77.4217 303° West  Level FlightAware Approximate
Thu 01:50:00 PM 25.0302 -77.4519 309° West  Level FlightAware Approximate
Thu 01:51:00 PM 25.0515 -77.4813 309° West  Level FlightAware Approximate
Thu 01:52:00 PM 25.0729 -77.5107 309° West  Level FlightAware Approximate
Thu 01:52:19 PM 25.1681 -77.4053 309° West 125 144 10,000  Level Miami Center
Thu 01:53:00 PM 25.0943 -77.5401 309° West  Level FlightAware Approximate
Thu 01:53:19 PM 25.1764 -77.4397 285° West 125 144 10,000  Level Miami Center
Thu 01:54:00 PM 25.1157 -77.5695 309° West  Level FlightAware Approximate
Thu 01:54:19 PM 25.1825 -77.4811 279° West 125 144 9,800  Level Miami Center
Thu 01:55:00 PM 25.1370 -77.5990 309° West  Level FlightAware Approximate
Thu 01:55:19 PM 25.1886 -77.5203 280° West 130 150 9,500  Level Miami Center
Thu 01:56:00 PM 25.1584 -77.6284 309° West  Level FlightAware Approximate
Thu 01:56:19 PM 25.1925 -77.5617 276° West 130 150 9,200  Level Miami Center
Thu 01:57:19 PM 25.1964 -77.6031 276° West 130 150 8,900 -300 Descending Miami Center
Thu 01:58:19 PM 25.2006 -77.6442 276° West 135 155 8,600 -300 Descending Miami Center
Thu 01:59:19 PM 25.2064 -77.6858 279° West 135 155 8,300 -250 Descending Miami Center
Thu 02:00:19 PM 25.2125 -77.7247 280° West 135 155 8,100 -150 Descending Miami Center
Thu 02:01:19 PM 25.2186 -77.7639 280° West 135 155 8,000 -50 Descending Miami Center
Thu 02:02:19 PM 25.2225 -77.7983 277° West 135 155 8,000  Level Miami Center
Thu 02:03:19 PM 25.2264 -77.8328 277° West 122 140 8,000  Level Miami Center
Thu 02:04:19 PM 25.2325 -77.8697 280° West 122 140 8,000  Level Miami Center
Thu 02:05:19 PM 25.2364 -77.9064 277° West 122 140 8,000  Level Miami Center
Thu 02:06:19 PM 25.2425 -77.9433 280° West 122 140 8,000  Level Miami Center
Thu 02:07:19 PM 25.2547 -77.9778 291° West 122 140 8,000  Level Miami Center
Thu 02:08:19 PM 25.2669 -78.0125 291° West 122 140 8,000  Level Miami Center
Thu 02:09:19 PM 25.2772 -78.0469 288° West 122 140 8,000  Level Miami Center
Thu 02:10:19 PM 25.2917 -78.0817 295° West 127 146 8,000  Level Miami Center
Thu 02:11:19 PM 25.3039 -78.1161 291° West 127 146 8,000  Level Miami Center
Thu 02:12:19 PM 25.3161 -78.1461 294° West 127 146 8,000  Level Miami Center
Thu 02:13:19 PM 25.3261 -78.1831 287° West 127 146 8,000  Level Miami Center
Thu 02:14:19 PM 25.3383 -78.2153 293° West 127 146 8,000  Level Miami Center
Thu 02:15:19 PM 25.3569 -78.2503 300° West 127 146 8,000  Level Miami Center
Thu 02:16:19 PM 25.3669 -78.2847 288° West 127 146 8,000  Level Miami Center
Thu 02:17:19 PM 25.3750 -78.3217 284° West 127 146 8,000  Level Miami Center
Thu 02:18:19 PM 25.3914 -78.3564 298° West 132 152 8,000  Level Miami Center
Thu 02:19:19 PM 25.4058 -78.3886 296° West 127 146 8,000  Level Miami Center
Thu 02:20:19 PM 25.4158 -78.4233 288° West 127 146 8,000  Level Miami Center
Thu 02:21:19 PM 25.4281 -78.4581 291° West 127 146 8,000  Level Miami Center
Thu 02:22:19 PM 25.4422 -78.4903 296° West 127 146 8,000  Level Miami Center
Thu 02:23:19 PM 25.4586 -78.5275 296° West 127 146 8,000  Level Miami Center
Thu 02:24:19 PM 25.4686 -78.5622 288° West 127 146 8,000  Level Miami Center
Thu 02:25:19 PM 25.4806 -78.5992 290° West 127 146 8,000 -50 Level Miami Center
Thu 02:26:19 PM 25.4950 -78.6317 296° West 127 146 7,900 -50 Descending Miami Center
Thu 02:27:19 PM 25.5050 -78.6661 288° West 127 146 7,900  Level Miami Center
Thu 02:28:19 PM 25.5192 -78.7033 293° West 127 146 7,900  Level Miami Center
Thu 02:29:19 PM 25.5292 -78.7381 288° West 127 146 7,900 50 Level Miami Center
Thu 02:30:19 PM 25.5433 -78.7706 296° West 127 146 8,000  Climbing Miami Center
Thu 02:31:19 PM 25.5556 -78.8053 291° West 127 146 7,900 -50 Descending Miami Center
Thu 02:32:19 PM 25.5653 -78.8400 287° West 127 146 7,900  Level Miami Center
Thu 02:33:19 PM 25.5797 -78.8725 296° West 127 146 7,900  Level Miami Center
Thu 02:34:19 PM 25.5958 -78.9072 297° West 127 146 7,900  Level Miami Center
Thu 02:35:19 PM 25.6081 -78.9397 293° West 127 146 7,900  Level Miami Center
Thu 02:36:19 PM 25.6200 -78.9767 290° West 127 146 7,900  Level Miami Center
Thu 02:37:19 PM 25.6278 -79.0114 284° West 127 146 7,900  Level Miami Center
Thu 02:38:19 PM 25.6439 -79.0442 299° West 127 146 7,900  Level Miami Center
Thu 02:39:19 PM 25.6561 -79.0789 291° West 127 146 7,900  Level Miami Center
Thu 02:40:19 PM 25.6658 -79.1136 287° West 132 152 7,900  Level Miami Center
Thu 02:41:19 PM 25.6800 -79.1461 296° West 127 146 7,900  Level Miami Center
Thu 02:42:19 PM 25.6900 -79.1808 288° West 127 146 7,900 -136 Level Miami Center
Thu 02:43:31 PM 25.7061 -79.2181 296° West 127 146 7,600 -273 Descending Miami Center
Thu 02:44:31 PM 25.7219 -79.2644 291° West 132 152 7,300 -300 Descending Miami Center
Thu 02:45:31 PM 25.7319 -79.3017 287° West 132 152 7,000 -400 Descending Miami Center
Thu 02:46:31 PM 25.7458 -79.3411 291° West 133 153 6,500 -400 Descending Miami Center
Thu 02:47:31 PM 25.7600 -79.3761 294° West 133 153 6,200 -350 Descending Miami Center
Thu 02:48:31 PM 25.7739 -79.4178 290° West 133 153 5,800 -350 Descending Miami Center
Thu 02:49:31 PM 25.7856 -79.4550 289° West 128 147 5,500 -283 Descending Miami Center
Thu 02:50:38 PM 25.8036 -79.4992 294° West 130 150 5,200 -300 Descending Miami Center
Thu 02:51:31 PM 25.8136 -79.5272 292° West 128 147 4,900 -319 Descending Miami Center
Thu 02:52:31 PM 25.8297 -79.5667 294° West 133 153 4,600 -303 Descending Miami Center
Thu 02:53:30 PM 25.8372 -79.6061 282° West 131 151 4,300 -300 Descending Miami Center
Thu 02:54:31 PM 25.8575 -79.6436 301° West 131 151 4,000 -298 Descending Miami Center
Thu 02:55:31 PM 25.8778 -79.6717 309° West 128 147 3,700 -256 Descending Miami Center
Thu 02:56:28 PM 25.8981 -79.7047 304° West 130 150 3,500 -100 Descending Miami Center
Thu 02:57:31 PM 25.9164 -79.7281 311° West 128 147 3,500  Level Miami Center
Thu 02:58:31 PM 25.9408 -79.7656 306° West 123 142 3,500  Level Miami Center
Thu 02:59:31 PM 25.9589 -79.7939 305° West 123 142 3,500  Level Miami Center
Thu 03:00:31 PM 25.9772 -79.8244 304° West 123 142 3,500  Level Miami Center
Thu 03:01:34 PM 25.9953 -79.8594 300° West 116 133 3,500 -97 Level Miami Center
Thu 03:02:35 PM 26.0133 -79.8878 305° West 120 138 3,300 -207 Descending Miami Center
Thu 03:03:30 PM 26.0317 -79.9181 304° West 132 152 3,100 -295 Descending Miami Center
Thu 03:04:37 PM 26.0581 -79.9558 308° West 128 147 2,700 -281 Descending Miami Center
Thu 03:05:38 PM 26.0781 -79.9886 304° West 129 148 2,500 -341 Descending Miami Center
Thu 03:06:40 PM 26.0983 -80.0217 304° West 138 159 2,000 -488 Descending Miami Center
Thu 03:07:41 PM 26.1228 -80.0569 308° West 141 162 1,500 -246 Descending Miami Center
Thu 03:08:42 PM 26.1428 -80.0922 302° West 122 140 1,500  Level Miami Center
Thu 03:09:44 PM 26.1650 -80.1231 309° West 121 139 1,500 -308 Level Miami Center
Thu 03:10:39 PM 26.1792 -80.1489 301° West 115 132 900 -155 Descending Miami Center
Thu 03:11:40 PM 26.1847 -80.1792 282° West 91 105 1,200 -148 Climbing Miami Center
Thu 03:12:41 PM 26.2033 -80.1889 335° Northwest 87 100 600 -590 Descending Miami Center
Thu 03:14:00 PM 26.1973 -80.1707 138° Southeast  Level Estimated
Thu 03:21:00 PM 26.1973 -80.1707 138° Southeast  Level Estimated

Login

Don't have an account? Register now (free) for customized features, flight alerts, and more!